Alstonwille Tropical Fru, Australia

1:07 PM AEDT on December 08, 2016 (GMT +1100)
Rous Mill | | Change Station

Elev 564 ft 28.87 °S, 153.40 °E | Updated 2 seconds ago

Overcast
Overcast
77.0 °F
Feels Like 78 °F
N
1.3
Wind Variable Wind from ENE
Gusts 2.5 mph

Today
High -- | Low -- °F
--% Chance of Precip.
Yesterday
High -- | Low -- °F
Precip. -- in
Pressure 29.80 in
Visibility 6.2 miles
Clouds Mostly Cloudy 1000 ft
Overcast 1500 ft
Heat Index 78 °F
Dew Point 72 °F
Humidity 84%
Rainfall 0.02 in
Snow Depth Not available.
5:40 AM 7:35 PM
First Quarter, 58% visible
SPECI YLIS 080200Z AUTO 31004KT 9999 // BKN010 OVC015 25/22 Q1009
Pressure 29.80 in
Visibility 6.2 miles
Clouds Mostly Cloudy 1000 ft
Overcast 1500 ft
Heat Index 78 °F
Dew Point 72 °F
Humidity 84%
Rainfall 0.02 in
Snow Depth Not available.
5:40 AM 7:35 PM
First Quarter, 58% visible
SPECI YLIS 080200Z AUTO 31004KT 9999 // BKN010 OVC015 25/22 Q1009

10-Day Weather Forecast

×

Almanac

Astronomy

Dec. 08, 2016 Rise Set
Actual Time
Civil Twilight
Nautical Twilight
Astronomical Twilight
Moon
Length of Visible Light
Length of Day
Tomorrow will be .
, % of the Moon is Illuminated

Today's Extremes

Country Highs Country Lows

Community

WunderPhotos

Upload Photos

1,956,259 photos uploaded!

WunderBlog® & News

Nearby

Air Quality

  Air Quality AQ Index Pollutant
Not available.

Snow Depth

Station Depth Elevation

Earthquake Activity

City Distance Mag. Time & Date
Minimum magnitude displayed is 2.5.

Coastal Water Temperatures

Place Temperature

Stations

Nearby Weather Stations

Station Location Temp. Windchill Dew Point Humidity Wind Precip. Elev Updated Type